Time;durP1;ratioP1;P1;durP2;ratioP2;P2;SDS_P1;SDS_P2;PMS_P1;PMS_P2;Temp;Humidity;BMP_temperature;BMP_pressure;BME280_temperature;BME280_humidity;BME280_pressure;Samples;Min_cycle;Max_cycle;Signal;HPM_P1;HPM_P2
2023/04/26 00:01:18;;;;;;;9.23;2.10;;;6.30;99.90;;;;;;4978816;28;20529;-83
2023/04/26 00:04:04;;;;;;;18.65;2.38;;;6.30;99.90;;;;;;4991302;28;20050;-79
2023/04/26 00:06:50;;;;;;;11.90;1.88;;;6.30;99.90;;;;;;4991337;28;20065;-80
2023/04/26 00:09:36;;;;;;;9.02;1.63;;;6.30;99.90;;;;;;4992401;28;20113;-81
2023/04/26 00:12:22;;;;;;;14.95;2.17;;;6.30;99.90;;;;;;4991550;28;20061;-84
2023/04/26 00:15:09;;;;;;;8.85;2.03;;;6.30;99.90;;;;;;4992417;28;20479;-87
2023/04/26 00:17:55;;;;;;;18.30;2.50;;;6.30;99.90;;;;;;4991136;28;20054;-87
2023/04/26 00:20:41;;;;;;;11.48;2.05;;;6.30;99.90;;;;;;4990863;28;20047;-83
2023/04/26 00:23:27;;;;;;;6.03;2.33;;;6.30;99.90;;;;;;4990942;28;20057;-86
2023/04/26 00:26:13;;;;;;;20.58;4.07;;;6.20;99.90;;;;;;4992789;28;20069;-85
2023/04/26 00:29:00;;;;;;;9.70;1.67;;;6.20;99.90;;;;;;4992899;28;20038;-86
2023/04/26 00:31:47;;;;;;;6.85;1.45;;;6.20;99.90;;;;;;4994432;28;20058;-86
2023/04/26 00:34:34;;;;;;;8.65;2.25;;;6.10;99.90;;;;;;4994307;28;20092;-82
2023/04/26 00:37:22;;;;;;;15.70;2.72;;;6.10;99.90;;;;;;4994356;28;20054;-78
2023/04/26 00:40:09;;;;;;;10.93;1.60;;;6.10;99.90;;;;;;5011968;28;20510;-86
2023/04/26 00:42:58;;;;;;;9.13;1.58;;;6.10;99.90;;;;;;5011158;28;20049;-82
2023/04/26 00:45:44;;;;;;;9.65;1.60;;;6.20;99.90;;;;;;5011302;28;20067;-87
2023/04/26 00:48:31;;;;;;;11.32;1.65;;;6.30;99.90;;;;;;4994455;28;20068;-87
2023/04/26 00:51:17;;;;;;;7.95;1.50;;;6.30;99.90;;;;;;4980683;28;20061;-81
2023/04/26 00:54:03;;;;;;;10.43;2.20;;;6.40;99.90;;;;;;4993209;28;20061;-85
2023/04/26 00:56:51;;;;;;;11.95;1.33;;;6.40;99.90;;;;;;4993796;28;20050;-83
2023/04/26 00:59:38;;;;;;;8.57;1.77;;;6.30;99.90;;;;;;4994389;28;20426;-85
2023/04/26 01:02:25;;;;;;;7.43;1.90;;;6.30;99.90;;;;;;4993389;28;20486;-84
2023/04/26 01:05:11;;;;;;;12.50;3.33;;;6.40;99.90;;;;;;4993951;28;20065;-81
2023/04/26 01:07:58;;;;;;;13.82;2.28;;;6.40;99.90;;;;;;4994509;28;20053;-82
2023/04/26 01:10:45;;;;;;;8.15;1.42;;;6.50;99.90;;;;;;4992759;28;20050;-85
2023/04/26 01:13:31;;;;;;;8.82;1.65;;;6.50;99.90;;;;;;5010656;28;20049;-86
2023/04/26 01:16:19;;;;;;;10.75;1.30;;;6.50;99.90;;;;;;5012000;28;20056;-85
2023/04/26 01:19:11;;;;;;;11.15;2.28;;;6.40;99.90;;;;;;4984270;28;20053;-90
2023/04/26 01:21:57;;;;;;;6.28;1.42;;;6.40;99.90;;;;;;4993170;28;20058;-86
2023/04/26 01:24:46;;;;;;;5.18;1.20;;;6.30;99.90;;;;;;4992515;28;20144;-87
2023/04/26 01:27:32;;;;;;;7.43;1.67;;;6.30;99.90;;;;;;4992072;28;20058;-86
2023/04/26 01:30:19;;;;;;;16.13;1.98;;;6.20;99.90;;;;;;4979231;28;20132;-84
2023/04/26 01:33:05;;;;;;;6.70;1.40;;;6.20;99.90;;;;;;4992703;28;20061;-85
2023/04/26 01:35:51;;;;;;;6.90;1.48;;;6.20;99.90;;;;;;4992880;28;20045;-82
2023/04/26 01:38:37;;;;;;;8.82;1.73;;;6.20;99.90;;;;;;4980430;28;20081;-81
2023/04/26 01:41:23;;;;;;;5.30;1.30;;;6.20;99.90;;;;;;5009803;28;20104;-86
2023/04/26 01:44:10;;;;;;;13.98;1.90;;;6.20;99.90;;;;;;5009526;28;20457;-82
2023/04/26 01:46:56;;;;;;;5.60;1.27;;;6.30;99.90;;;;;;4993243;28;20053;-84
2023/04/26 01:49:42;;;;;;;5.13;1.65;;;6.30;99.90;;;;;;4980305;28;20049;-81
2023/04/26 01:52:28;;;;;;;6.50;1.15;;;6.40;99.90;;;;;;4992805;28;20093;-84
2023/04/26 01:55:14;;;;;;;6.00;1.30;;;6.40;99.90;;;;;;4980265;28;20116;-80
2023/04/26 01:58:00;;;;;;;8.60;1.25;;;6.40;99.90;;;;;;4992094;28;20554;-88
2023/04/26 02:00:46;;;;;;;7.32;1.17;;;6.30;99.90;;;;;;4980107;28;20065;-83
2023/04/26 02:03:33;;;;;;;5.80;1.25;;;6.30;99.90;;;;;;4991481;28;20061;-87
2023/04/26 02:06:20;;;;;;;4.90;1.55;;;6.30;99.90;;;;;;4993391;28;20410;-85
2023/04/26 02:09:08;;;;;;;6.25;1.90;;;6.20;99.90;;;;;;4979769;28;20140;-88
2023/04/26 02:11:54;;;;;;;9.15;1.48;;;6.10;99.90;;;;;;4993446;28;20502;-80
2023/04/26 02:14:40;;;;;;;9.18;1.65;;;6.10;99.90;;;;;;4979566;28;20065;-83
2023/04/26 02:17:28;;;;;;;6.68;1.20;;;6.10;99.90;;;;;;4991519;28;20094;-85
2023/04/26 02:20:14;;;;;;;7.20;2.55;;;6.20;99.90;;;;;;4978905;28;20100;-83
2023/04/26 02:23:00;;;;;;;7.05;1.08;;;6.10;99.90;;;;;;4992205;28;20060;-84
2023/04/26 02:25:48;;;;;;;6.68;1.20;;;6.00;99.90;;;;;;4996153;28;20056;-83
2023/04/26 02:28:34;;;;;;;9.88;1.83;;;6.10;99.90;;;;;;4993264;28;20050;-86
2023/04/26 02:31:21;;;;;;;7.80;1.40;;;6.10;99.90;;;;;;4990743;28;20057;-82
2023/04/26 02:34:07;;;;;;;10.65;1.50;;;6.10;99.90;;;;;;4993841;28;20398;-83
2023/04/26 02:36:53;;;;;;;8.18;1.70;;;6.10;99.90;;;;;;4993343;28;20058;-86
2023/04/26 02:39:40;;;;;;;10.13;1.80;;;6.10;99.90;;;;;;4978989;28;20058;-88
2023/04/26 02:42:26;;;;;;;6.22;1.33;;;6.00;99.90;;;;;;4980163;28;20058;-85
2023/04/26 02:45:13;;;;;;;7.50;1.48;;;6.00;99.90;;;;;;4991340;28;20054;-84
2023/04/26 02:47:59;;;;;;;10.70;1.30;;;6.00;99.90;;;;;;5009553;28;20057;-83
2023/04/26 02:50:46;;;;;;;10.25;2.40;;;6.00;99.90;;;;;;4992830;28;20509;-83
2023/04/26 02:53:32;;;;;;;10.82;2.00;;;6.10;99.90;;;;;;4993111;28;20572;-87
2023/04/26 02:56:18;;;;;;;10.23;1.52;;;6.00;99.90;;;;;;4991555;28;20064;-83
2023/04/26 02:59:06;;;;;;;8.68;1.58;;;6.00;99.90;;;;;;4992260;28;20062;-83
2023/04/26 03:01:52;;;;;;;5.63;0.95;;;5.90;99.90;;;;;;5010887;28;20136;-80
2023/04/26 03:04:38;;;;;;;5.32;1.40;;;5.90;99.90;;;;;;5006892;28;20060;-81
2023/04/26 03:07:24;;;;;;;12.15;3.05;;;5.80;99.90;;;;;;4996847;28;20058;-79
2023/04/26 03:10:11;;;;;;;12.02;2.67;;;5.90;99.90;;;;;;4994950;28;20065;-83
2023/04/26 03:12:57;;;;;;;9.07;1.80;;;5.90;99.90;;;;;;5014399;28;20129;-80
2023/04/26 03:15:45;;;;;;;10.80;1.35;;;6.00;99.90;;;;;;4994914;28;20058;-84
2023/04/26 03:18:31;;;;;;;4.22;1.40;;;6.00;99.90;;;;;;5012768;28;20057;-85
2023/04/26 03:21:17;;;;;;;5.20;1.50;;;6.00;99.90;;;;;;4996022;28;20724;-83
2023/04/26 03:24:03;;;;;;;8.30;1.48;;;6.00;99.90;;;;;;4982481;28;20087;-85
2023/04/26 03:26:49;;;;;;;10.68;1.40;;;6.00;99.90;;;;;;4982021;28;20046;-84
2023/04/26 03:29:36;;;;;;;9.13;2.05;;;6.00;99.90;;;;;;4983467;28;20124;-81
2023/04/26 03:32:22;;;;;;;7.40;1.73;;;6.00;99.90;;;;;;4995868;28;20057;-78
2023/04/26 03:35:09;;;;;;;10.65;1.98;;;6.10;99.90;;;;;;4994494;28;20529;-79
2023/04/26 03:37:55;;;;;;;7.68;1.63;;;5.90;99.90;;;;;;4996018;28;20085;-82
2023/04/26 03:40:41;;;;;;;7.00;1.88;;;5.80;99.90;;;;;;4994227;28;20449;-86
2023/04/26 03:43:27;;;;;;;7.50;1.50;;;5.80;99.90;;;;;;4982326;28;20050;-82
2023/04/26 03:46:13;;;;;;;10.48;2.10;;;5.80;99.90;;;;;;4994298;28;20057;-83
2023/04/26 03:48:59;;;;;;;5.25;1.25;;;5.80;99.90;;;;;;4994259;28;20108;-81
2023/04/26 03:51:45;;;;;;;6.65;1.77;;;5.80;99.90;;;;;;5011857;28;20128;-85
2023/04/26 03:54:31;;;;;;;9.05;1.60;;;5.80;99.90;;;;;;4980674;28;20085;-86
2023/04/26 03:57:17;;;;;;;5.80;1.23;;;5.80;99.90;;;;;;4994203;28;20474;-83
2023/04/26 04:00:13;;;;;;;8.73;3.15;;;5.80;99.90;;;;;;4993472;28;20115;-85
2023/04/26 04:02:59;;;;;;;6.70;1.73;;;5.80;99.90;;;;;;4995269;28;20085;-81
2023/04/26 04:05:45;;;;;;;14.57;3.33;;;5.80;99.90;;;;;;5012058;28;20049;-80
2023/04/26 04:08:32;;;;;;;6.55;1.33;;;5.80;99.90;;;;;;4993834;28;20566;-83
2023/04/26 04:11:19;;;;;;;7.97;1.58;;;5.70;99.90;;;;;;4994347;28;20053;-78
2023/04/26 04:14:06;;;;;;;6.95;2.10;;;5.70;99.90;;;;;;4994884;28;20531;-80
2023/04/26 04:16:52;;;;;;;13.00;3.20;;;5.70;99.90;;;;;;4994228;28;20057;-84
2023/04/26 04:19:38;;;;;;;5.32;2.58;;;5.70;99.90;;;;;;4994121;28;20049;-84
2023/04/26 04:22:24;;;;;;;6.10;1.77;;;5.70;99.90;;;;;;4981712;28;20042;-86
2023/04/26 04:25:10;;;;;;;9.27;1.77;;;5.70;99.90;;;;;;4981902;28;20417;-86
2023/04/26 04:27:57;;;;;;;8.10;1.25;;;5.70;99.90;;;;;;5012758;28;20429;-81
2023/04/26 04:30:43;;;;;;;6.93;2.13;;;5.70;99.90;;;;;;4995486;28;20089;-80
2023/04/26 04:33:29;;;;;;;7.70;1.42;;;5.70;99.90;;;;;;4994604;28;20116;-82
2023/04/26 04:36:15;;;;;;;9.93;1.52;;;5.60;99.90;;;;;;5009632;28;20459;-83
2023/04/26 04:39:03;;;;;;;5.50;1.13;;;5.60;99.90;;;;;;5012600;28;20054;-83
2023/04/26 04:41:49;;;;;;;9.85;1.60;;;5.70;99.90;;;;;;4994324;28;20066;-83
2023/04/26 04:44:35;;;;;;;7.57;1.50;;;5.80;99.90;;;;;;4994488;28;20057;-85
2023/04/26 04:47:21;;;;;;;7.35;1.75;;;5.80;99.90;;;;;;4994127;28;20050;-81
2023/04/26 04:50:08;;;;;;;8.75;1.67;;;5.80;99.90;;;;;;4993254;28;20141;-81
2023/04/26 04:52:54;;;;;;;17.88;2.55;;;5.90;99.90;;;;;;4994786;28;20057;-79
2023/04/26 04:55:40;;;;;;;9.05;1.83;;;6.00;99.90;;;;;;5012269;28;20053;-81
2023/04/26 04:58:26;;;;;;;7.93;1.55;;;6.00;99.90;;;;;;5009960;28;20658;-88
2023/04/26 05:01:13;;;;;;;6.60;2.83;;;6.10;99.90;;;;;;4993012;28;20116;-86
2023/04/26 05:04:00;;;;;;;8.85;2.70;;;6.30;99.90;;;;;;4979823;28;20053;-85
2023/04/26 05:06:46;;;;;;;6.85;1.70;;;6.40;99.90;;;;;;4980634;28;20468;-79
2023/04/26 05:09:32;;;;;;;6.30;1.58;;;6.50;99.90;;;;;;4993641;28;20085;-81
2023/04/26 05:12:18;;;;;;;9.93;2.33;;;6.50;99.90;;;;;;4982812;28;20056;-79
2023/04/26 05:15:05;;;;;;;7.50;2.28;;;6.30;99.90;;;;;;4994583;28;20402;-81
2023/04/26 05:17:54;;;;;;;4.95;1.42;;;6.20;99.90;;;;;;5012501;28;20056;-80
2023/04/26 05:20:40;;;;;;;9.00;1.60;;;6.20;99.90;;;;;;4994691;28;20088;-87
2023/04/26 05:23:26;;;;;;;4.63;1.60;;;6.20;99.90;;;;;;5010451;28;20042;-88
2023/04/26 05:26:14;;;;;;;9.43;1.45;;;6.20;99.90;;;;;;5011510;28;20054;-85
2023/04/26 05:29:00;;;;;;;8.32;1.52;;;6.20;99.90;;;;;;4992368;28;20054;-87
2023/04/26 05:31:47;;;;;;;8.90;2.17;;;6.30;99.90;;;;;;4992478;28;20064;-87
2023/04/26 05:34:33;;;;;;;5.82;1.45;;;6.30;99.90;;;;;;4992107;28;20544;-87
2023/04/26 05:37:20;;;;;;;7.95;1.65;;;6.30;99.90;;;;;;4992676;28;20188;-86
2023/04/26 05:40:07;;;;;;;5.80;1.73;;;6.20;99.90;;;;;;4991964;28;20053;-87
2023/04/26 05:42:53;;;;;;;4.38;1.40;;;6.20;99.90;;;;;;4980352;28;20050;-84
2023/04/26 05:45:40;;;;;;;9.02;1.70;;;6.20;99.90;;;;;;4993825;28;20442;-85
2023/04/26 05:48:26;;;;;;;12.30;3.60;;;6.20;99.90;;;;;;5008862;28;20058;-86
2023/04/26 05:51:12;;;;;;;12.38;2.13;;;6.30;99.90;;;;;;4993868;28;20074;-87
2023/04/26 05:53:58;;;;;;;12.30;2.95;;;6.30;99.90;;;;;;4980023;28;20503;-86
2023/04/26 05:56:44;;;;;;;8.35;1.67;;;6.40;99.90;;;;;;4993361;28;20195;-85
2023/04/26 05:59:35;;;;;;;9.77;1.58;;;6.50;99.90;;;;;;4978573;28;20057;-85
2023/04/26 06:02:21;;;;;;;9.32;1.90;;;6.60;99.90;;;;;;5008207;28;20052;-83
2023/04/26 06:05:07;;;;;;;10.15;1.90;;;6.70;99.90;;;;;;4992982;28;20532;-84
2023/04/26 06:07:55;;;;;;;8.70;1.67;;;6.90;99.90;;;;;;4992012;28;20089;-83
2023/04/26 06:10:41;;;;;;;8.00;2.58;;;6.90;99.90;;;;;;4991413;28;20058;-87
2023/04/26 06:13:27;;;;;;;6.40;1.52;;;6.90;99.90;;;;;;4992042;28;20062;-83
2023/04/26 06:16:13;;;;;;;8.95;1.55;;;6.90;99.90;;;;;;4980089;28;20042;-83
2023/04/26 06:18:59;;;;;;;10.30;1.67;;;6.90;99.90;;;;;;4991822;28;20081;-83
2023/04/26 06:21:45;;;;;;;8.15;1.50;;;6.90;99.90;;;;;;4993441;28;20084;-83
2023/04/26 06:24:31;;;;;;;10.45;2.05;;;6.90;99.90;;;;;;4992399;28;20061;-86
2023/04/26 06:27:17;;;;;;;10.25;2.35;;;7.10;99.90;;;;;;4992133;28;20054;-81
2023/04/26 06:30:05;;;;;;;6.03;2.25;;;7.30;99.90;;;;;;4992904;28;20464;-84
2023/04/26 06:32:51;;;;;;;6.28;1.88;;;7.40;99.90;;;;;;4995376;28;20397;-83
2023/04/26 06:35:41;;;;;;;7.40;1.48;;;7.60;99.90;;;;;;4991377;28;20049;-81
2023/04/26 06:38:27;;;;;;;7.68;1.20;;;7.80;99.90;;;;;;4991845;28;20096;-83
2023/04/26 06:41:13;;;;;;;9.07;1.30;;;8.00;99.90;;;;;;4993547;28;20046;-82
2023/04/26 06:43:59;;;;;;;8.40;1.65;;;8.00;99.90;;;;;;4984226;28;20111;-83
2023/04/26 06:46:45;;;;;;;11.90;2.78;;;7.90;99.90;;;;;;4996856;28;20417;-84
2023/04/26 06:49:31;;;;;;;8.30;1.40;;;7.80;99.90;;;;;;5014332;28;20054;-80
2023/04/26 06:52:18;;;;;;;9.27;1.50;;;7.80;99.90;;;;;;4983934;28;20049;-86
2023/04/26 06:55:04;;;;;;;8.20;1.75;;;8.00;99.90;;;;;;4995184;28;20049;-87
2023/04/26 06:57:50;;;;;;;13.02;2.28;;;8.20;99.90;;;;;;4996661;28;20054;-82
2023/04/26 07:00:36;;;;;;;9.32;2.15;;;8.40;99.90;;;;;;4995836;28;20151;-83
2023/04/26 07:03:22;;;;;;;7.22;2.00;;;8.50;99.90;;;;;;4996136;28;20054;-85
2023/04/26 07:06:09;;;;;;;7.97;1.63;;;8.40;99.90;;;;;;4995822;28;20050;-88
2023/04/26 07:08:57;;;;;;;8.45;1.92;;;8.40;99.90;;;;;;4995568;28;20115;-87
2023/04/26 07:11:46;;;;;;;11.75;2.22;;;8.50;99.90;;;;;;5013609;28;20046;-87
2023/04/26 07:14:34;;;;;;;12.00;2.35;;;8.50;99.90;;;;;;5014449;28;20050;-82
2023/04/26 07:17:21;;;;;;;9.40;1.60;;;8.90;99.90;;;;;;5013080;28;20054;-86
2023/04/26 07:20:07;;;;;;;10.70;1.83;;;9.10;99.90;;;;;;4996330;28;20123;-87
2023/04/26 07:22:53;;;;;;;8.50;1.50;;;9.30;99.50;;;;;;4994586;28;20057;-85
2023/04/26 07:25:39;;;;;;;7.45;1.60;;;9.30;99.10;;;;;;4994452;28;20058;-86
2023/04/26 07:28:26;;;;;;;7.28;1.63;;;9.40;98.70;;;;;;5012313;28;20081;-86
2023/04/26 07:31:12;;;;;;;7.43;1.60;;;9.60;98.70;;;;;;4981813;28;20049;-87
2023/04/26 07:33:58;;;;;;;7.03;1.50;;;9.70;98.50;;;;;;4995650;28;20149;-83
2023/04/26 07:36:44;;;;;;;10.48;2.05;;;9.80;97.90;;;;;;4996325;28;20056;-87
2023/04/26 07:39:31;;;;;;;6.18;1.60;;;9.80;98.50;;;;;;4981814;28;20057;-83
2023/04/26 07:42:17;;;;;;;16.15;2.22;;;9.70;99.10;;;;;;4994517;28;20391;-84
2023/04/26 07:45:03;;;;;;;7.60;1.60;;;9.50;99.40;;;;;;5013155;28;20077;-82
2023/04/26 07:47:49;;;;;;;7.07;1.65;;;9.40;99.50;;;;;;4996642;28;20139;-85
2023/04/26 07:50:36;;;;;;;9.60;2.00;;;9.40;99.50;;;;;;4994852;28;20061;-86
2023/04/26 07:53:22;;;;;;;6.90;1.33;;;9.50;98.80;;;;;;5013063;28;20066;-83
2023/04/26 07:56:08;;;;;;;7.45;1.17;;;9.70;98.40;;;;;;4996651;28;20137;-86
2023/04/26 07:58:55;;;;;;;9.35;1.52;;;9.90;99.30;;;;;;5012720;28;20046;-85
2023/04/26 08:01:41;;;;;;;8.85;1.60;;;10.00;99.20;;;;;;4995071;28;20065;-84
2023/04/26 08:04:35;;;;;;;10.43;1.42;;;10.00;99.30;;;;;;4995542;28;20058;-83
2023/04/26 08:07:21;;;;;;;7.32;1.38;;;9.90;99.60;;;;;;4994983;28;20081;-83
2023/04/26 08:10:09;;;;;;;7.35;1.35;;;10.00;99.90;;;;;;4995104;28;20053;-85
2023/04/26 08:12:56;;;;;;;7.40;1.63;;;10.20;99.80;;;;;;4969837;28;20498;-85
2023/04/26 08:15:42;;;;;;;10.00;1.48;;;10.40;99.50;;;;;;4981668;28;20050;-84
2023/04/26 08:18:28;;;;;;;10.32;1.27;;;10.60;99.50;;;;;;4993954;28;20085;-86
2023/04/26 08:21:14;;;;;;;8.35;1.38;;;10.80;98.90;;;;;;5011586;28;20048;-85
2023/04/26 08:24:00;;;;;;;9.90;1.50;;;10.90;98.20;;;;;;4994814;28;20133;-87
2023/04/26 08:26:46;;;;;;;6.47;1.00;;;11.30;97.90;;;;;;4981481;28;20054;-85
2023/04/26 08:29:32;;;;;;;5.60;0.90;;;11.40;97.40;;;;;;4993427;28;20054;-83
2023/04/26 08:32:19;;;;;;;7.22;1.17;;;11.60;97.00;;;;;;4994026;28;20065;-83
2023/04/26 08:35:05;;;;;;;3.33;0.80;;;11.90;96.80;;;;;;5012668;28;20142;-84
2023/04/26 08:37:51;;;;;;;7.30;1.17;;;12.20;95.80;;;;;;5011625;28;20132;-86
2023/04/26 08:40:37;;;;;;;3.63;0.77;;;12.30;95.00;;;;;;5011587;28;20058;-83
2023/04/26 08:43:26;;;;;;;6.75;1.48;;;12.40;94.80;;;;;;5011958;28;20061;-85
2023/04/26 08:46:17;;;;;;;6.40;1.50;;;11.90;94.40;;;;;;5012551;28;20060;-83
2023/04/26 08:49:35;;;;;;;4.45;0.70;;;11.80;95.10;;;;;;5012553;28;20042;-87
2023/04/26 08:52:22;;;;;;;6.60;1.30;;;11.70;95.00;;;;;;5012023;28;20136;-84
2023/04/26 08:55:09;;;;;;;9.32;1.65;;;11.60;95.80;;;;;;4993380;28;20454;-85
2023/04/26 08:57:56;;;;;;;14.68;1.70;;;11.70;96.20;;;;;;4981130;28;20054;-84
2023/04/26 09:00:44;;;;;;;7.85;1.30;;;11.60;96.40;;;;;;4992711;28;20095;-87
2023/04/26 09:03:30;;;;;;;6.05;1.00;;;11.50;96.40;;;;;;4993559;28;20494;-85
2023/04/26 09:06:17;;;;;;;10.20;1.83;;;11.60;96.70;;;;;;4992713;28;20108;-86
2023/04/26 09:09:06;;;;;;;6.80;1.83;;;11.70;96.40;;;;;;5009839;28;20054;-86
2023/04/26 09:11:58;;;;;;;6.60;1.00;;;11.90;96.60;;;;;;4993089;28;20057;-86
2023/04/26 09:14:44;;;;;;;7.22;1.23;;;12.30;96.50;;;;;;4994243;28;20050;-85
2023/04/26 09:17:33;;;;;;;7.88;2.10;;;12.30;95.80;;;;;;4993265;28;20414;-84
2023/04/26 09:20:30;;;;;;;6.28;0.93;;;12.60;95.10;;;;;;5009760;28;20564;-85
2023/04/26 09:23:18;;;;;;;9.15;1.20;;;12.80;94.50;;;;;;4993187;28;20069;-83
2023/04/26 09:26:21;;;;;;;6.50;1.13;;;12.80;95.20;;;;;;4994140;28;20182;-82
2023/04/26 09:29:16;;;;;;;2.88;0.68;;;12.90;94.20;;;;;;4993763;28;20137;-87
2023/04/26 09:32:04;;;;;;;10.55;1.60;;;13.00;94.80;;;;;;4993893;28;20058;-84
2023/04/26 09:34:50;;;;;;;4.88;1.00;;;12.60;96.20;;;;;;4993852;28;20053;-86
2023/04/26 09:37:50;;;;;;;8.18;1.30;;;12.10;97.90;;;;;;5009369;28;20057;-86
2023/04/26 09:40:39;;;;;;;4.35;1.10;;;12.10;98.10;;;;;;4979834;28;20502;-84
2023/04/26 09:43:25;;;;;;;5.95;1.08;;;12.30;97.90;;;;;;4992404;28;20062;-85
2023/04/26 09:46:22;;;;;;;11.55;1.75;;;12.10;97.40;;;;;;5009832;28;20533;-85
2023/04/26 09:49:08;;;;;;;7.40;0.93;;;11.60;97.70;;;;;;4993524;28;20054;-84
2023/04/26 09:52:05;;;;;;;10.32;1.35;;;11.30;98.30;;;;;;4979061;28;20052;-88
2023/04/26 09:54:52;;;;;;;5.00;0.85;;;11.10;97.60;;;;;;4992868;28;20069;-88
2023/04/26 09:57:45;;;;;;;7.72;0.82;;;10.90;98.10;;;;;;4993638;28;20045;-85
2023/04/26 10:00:31;;;;;;;3.55;0.90;;;10.80;98.70;;;;;;4992817;28;20145;-84
2023/04/26 10:03:19;;;;;;;3.95;1.05;;;10.50;98.60;;;;;;4992348;28;20050;-87
2023/04/26 10:06:06;;;;;;;5.85;0.80;;;10.60;98.90;;;;;;4979900;28;20100;-83
2023/04/26 10:08:53;;;;;;;5.93;0.73;;;10.60;98.60;;;;;;5009547;28;20076;-87
2023/04/26 10:11:39;;;;;;;9.15;1.13;;;10.60;98.20;;;;;;5010276;28;20086;-82
2023/04/26 10:14:25;;;;;;;2.97;0.73;;;10.60;97.30;;;;;;5008241;28;20050;-85
2023/04/26 10:17:12;;;;;;;6.72;1.45;;;10.80;96.90;;;;;;4991425;28;20057;-81
2023/04/26 10:20:00;;;;;;;7.35;1.08;;;11.00;96.70;;;;;;4979709;28;20060;-82
2023/04/26 10:22:52;;;;;;;4.35;0.88;;;11.20;96.60;;;;;;5010986;28;20050;-84
2023/04/26 10:25:40;;;;;;;3.13;0.88;;;11.10;95.50;;;;;;4996668;28;20492;-85
2023/04/26 10:28:46;;;;;;;5.57;0.75;;;11.10;95.50;;;;;;4991818;28;20763;-84
2023/04/26 10:32:00;;;;;;;2.75;0.63;;;11.30;95.20;;;;;;4992111;28;20054;-85
2023/04/26 10:35:12;;;;;;;4.78;0.82;;;11.40;94.70;;;;;;4991797;28;20053;-85
2023/04/26 10:37:58;;;;;;;9.98;1.50;;;11.20;94.70;;;;;;4992261;28;20080;-85
2023/04/26 10:40:45;;;;;;;3.83;1.10;;;11.40;95.30;;;;;;4991402;28;20401;-82
2023/04/26 10:43:31;;;;;;;2.88;0.90;;;11.10;95.20;;;;;;4979297;28;20604;-88
2023/04/26 10:46:41;;;;;;;7.80;0.98;;;11.30;95.40;;;;;;4980418;28;20144;-81
2023/04/26 10:49:28;;;;;;;9.18;2.42;;;11.10;95.30;;;;;;4980326;28;20567;-84
2023/04/26 10:52:15;;;;;;;6.72;1.13;;;11.20;95.30;;;;;;4996983;28;20057;-82
2023/04/26 10:55:02;;;;;;;8.30;1.80;;;11.20;95.50;;;;;;5011104;28;20600;-84
2023/04/26 10:57:50;;;;;;;10.23;1.40;;;11.20;95.40;;;;;;4994110;28;20046;-83
2023/04/26 11:00:37;;;;;;;8.82;1.15;;;11.30;95.50;;;;;;5010884;28;20046;-86
2023/04/26 11:03:24;;;;;;;7.32;1.10;;;11.30;95.40;;;;;;4991850;28;20057;-84
2023/04/26 11:06:14;;;;;;;5.57;1.25;;;11.50;95.80;;;;;;5009346;28;20050;-87
2023/04/26 11:09:00;;;;;;;6.95;1.08;;;11.50;95.80;;;;;;4980173;28;20058;-82
2023/04/26 11:11:52;;;;;;;10.57;1.75;;;11.50;95.20;;;;;;4991286;28;20050;-85
2023/04/26 11:14:40;;;;;;;9.25;1.85;;;11.70;95.90;;;;;;4992135;28;20140;-83
2023/04/26 11:17:26;;;;;;;7.32;1.33;;;12.30;95.30;;;;;;4991678;28;20045;-87
2023/04/26 11:20:16;;;;;;;8.75;1.40;;;12.90;94.70;;;;;;4992588;28;20081;-81
2023/04/26 11:23:02;;;;;;;8.45;1.17;;;13.30;94.50;;;;;;4991560;28;20450;-88
2023/04/26 11:25:48;;;;;;;6.90;1.00;;;13.50;93.90;;;;;;4992436;28;20057;-81
2023/04/26 11:28:36;;;;;;;9.70;1.20;;;13.70;93.60;;;;;;4994293;28;20049;-87
2023/04/26 11:31:22;;;;;;;5.30;0.98;;;13.90;93.50;;;;;;4994344;28;20060;-79
2023/04/26 11:34:08;;;;;;;4.10;0.82;;;14.50;93.00;;;;;;4994567;28;20514;-82
2023/04/26 11:36:54;;;;;;;6.93;1.42;;;15.20;91.90;;;;;;4994541;28;20050;-83
2023/04/26 11:39:40;;;;;;;12.05;1.23;;;15.60;91.30;;;;;;4982891;28;20100;-84
2023/04/26 11:42:26;;;;;;;4.57;1.20;;;16.00;90.30;;;;;;4994884;28;20088;-83
2023/04/26 11:45:15;;;;;;;4.38;1.00;;;15.70;90.00;;;;;;5011764;28;20077;-82
2023/04/26 11:48:03;;;;;;;9.98;1.50;;;15.40;89.40;;;;;;5013756;28;20494;-82
2023/04/26 11:50:50;;;;;;;5.72;0.90;;;15.30;89.00;;;;;;5012895;28;20084;-83
2023/04/26 11:53:38;;;;;;;5.43;1.33;;;15.30;90.00;;;;;;5015433;28;20136;-80
2023/04/26 11:56:24;;;;;;;6.65;1.20;;;15.10;88.10;;;;;;4996367;28;20486;-88
2023/04/26 11:59:10;;;;;;;9.23;1.60;;;14.70;89.10;;;;;;4995364;28;20061;-88
2023/04/26 12:01:56;;;;;;;5.03;1.20;;;14.50;89.20;;;;;;4982920;28;20054;-89
2023/04/26 12:04:44;;;;;;;9.23;1.42;;;14.60;89.80;;;;;;4994244;28;20058;-84
2023/04/26 12:07:37;;;;;;;7.90;1.55;;;14.90;88.60;;;;;;4982315;28;20046;-85
2023/04/26 12:10:27;;;;;;;8.02;1.17;;;15.10;89.40;;;;;;4982089;28;20383;-87
2023/04/26 12:13:13;;;;;;;7.53;1.10;;;14.80;86.90;;;;;;4980291;28;20053;-87
2023/04/26 12:16:06;;;;;;;6.55;1.20;;;14.80;87.10;;;;;;4993702;28;20053;-87
2023/04/26 12:18:55;;;;;;;5.43;1.10;;;14.70;86.60;;;;;;4997691;28;20473;-87
2023/04/26 12:21:42;;;;;;;6.82;1.27;;;14.40;87.00;;;;;;5011513;28;20069;-87
2023/04/26 12:24:33;;;;;;;3.13;0.90;;;14.00;86.70;;;;;;5012534;28;20541;-86
2023/04/26 12:27:20;;;;;;;3.55;0.95;;;14.00;85.40;;;;;;4978133;28;20042;-83
2023/04/26 12:30:07;;;;;;;8.73;1.52;;;14.10;86.20;;;;;;4991290;28;20054;-86
2023/04/26 12:32:54;;;;;;;6.78;1.15;;;14.00;85.40;;;;;;4992663;28;20057;-87
2023/04/26 12:35:40;;;;;;;7.68;1.17;;;13.90;85.50;;;;;;4990394;28;20065;-86
2023/04/26 12:38:27;;;;;;;6.75;1.58;;;13.50;86.60;;;;;;4992647;28;20042;-86
2023/04/26 12:41:13;;;;;;;7.88;1.50;;;13.60;86.90;;;;;;4991787;28;20133;-88
2023/04/26 12:43:59;;;;;;;6.22;1.92;;;13.60;87.60;;;;;;4989183;28;20108;-84
2023/04/26 12:46:45;;;;;;;8.77;1.55;;;13.70;88.40;;;;;;4978637;28;20061;-87
2023/04/26 12:49:31;;;;;;;8.38;1.73;;;14.00;87.80;;;;;;4977469;28;20050;-87
2023/04/26 12:52:17;;;;;;;4.80;1.10;;;14.60;87.30;;;;;;4989644;28;20050;-86
2023/04/26 12:55:05;;;;;;;8.55;1.70;;;15.20;86.20;;;;;;4992476;28;20054;-87
2023/04/26 12:57:51;;;;;;;7.20;1.27;;;14.70;85.00;;;;;;4991883;28;20062;-87
2023/04/26 13:00:37;;;;;;;8.18;1.25;;;14.20;85.80;;;;;;4989726;28;20054;-85
2023/04/26 13:03:23;;;;;;;6.45;1.65;;;13.80;86.90;;;;;;4991345;28;20047;-86
2023/04/26 13:06:09;;;;;;;7.70;1.40;;;13.30;86.60;;;;;;4990819;28;20069;-84
2023/04/26 13:08:55;;;;;;;10.68;1.30;;;13.20;88.00;;;;;;4990877;28;20050;-90
2023/04/26 13:11:41;;;;;;;3.17;1.33;;;12.70;89.40;;;;;;4990749;28;20058;-85
2023/04/26 13:14:27;;;;;;;4.85;1.23;;;12.40;90.60;;;;;;4976109;28;20144;-84
2023/04/26 13:17:13;;;;;;;8.90;1.50;;;12.40;91.30;;;;;;4979679;28;20137;-84
2023/04/26 13:19:59;;;;;;;7.60;1.50;;;12.00;90.50;;;;;;4980133;28;20088;-87
2023/04/26 13:22:45;;;;;;;5.72;1.58;;;12.20;90.60;;;;;;4990501;28;20042;-81
2023/04/26 13:25:31;;;;;;;7.55;1.60;;;12.00;90.60;;;;;;4992055;28;20152;-81
2023/04/26 13:28:17;;;;;;;7.20;1.92;;;11.90;91.30;;;;;;4993244;28;20494;-82
2023/04/26 13:31:03;;;;;;;8.23;1.88;;;11.60;92.10;;;;;;4980707;28;20050;-81
2023/04/26 13:33:50;;;;;;;7.70;1.75;;;11.70;93.00;;;;;;4981500;28;20100;-82
2023/04/26 13:36:36;;;;;;;8.13;1.80;;;11.80;93.20;;;;;;4993446;28;20121;-82
2023/04/26 13:39:23;;;;;;;6.55;1.95;;;11.70;92.90;;;;;;4979959;28;20069;-78
2023/04/26 13:42:10;;;;;;;6.63;1.77;;;11.70;93.80;;;;;;4993865;28;20065;-80
2023/04/26 13:44:56;;;;;;;4.85;2.10;;;11.80;93.90;;;;;;4980891;28;20056;-84
2023/04/26 13:47:42;;;;;;;8.68;1.65;;;11.80;93.40;;;;;;4992104;28;20042;-88
2023/04/26 13:50:28;;;;;;;7.07;1.40;;;11.70;94.00;;;;;;5010624;28;20125;-82
2023/04/26 13:53:14;;;;;;;7.18;1.30;;;11.50;94.00;;;;;;5009765;28;20058;-83
2023/04/26 13:56:00;;;;;;;4.85;1.30;;;11.60;94.00;;;;;;5011868;28;20121;-84
2023/04/26 13:58:55;;;;;;;8.35;1.50;;;11.60;93.60;;;;;;4993585;28;20050;-81
2023/04/26 14:01:41;;;;;;;6.90;1.40;;;11.50;93.70;;;;;;4979702;28;20529;-83
2023/04/26 14:04:27;;;;;;;4.80;1.10;;;11.60;94.20;;;;;;4991883;28;20200;-81
2023/04/26 14:07:13;;;;;;;4.70;1.23;;;11.50;94.60;;;;;;4992575;28;20144;-84
2023/04/26 14:09:59;;;;;;;8.68;1.23;;;11.40;94.80;;;;;;4991716;28;20565;-86
2023/04/26 14:12:45;;;;;;;6.07;1.75;;;11.20;95.10;;;;;;4993343;28;20161;-88
2023/04/26 14:15:31;;;;;;;6.65;1.40;;;10.50;97.40;;;;;;5007592;28;20050;-82
2023/04/26 14:18:17;;;;;;;4.65;1.35;;;10.00;99.10;;;;;;5009435;28;20050;-85
2023/04/26 14:21:04;;;;;;;3.97;1.10;;;9.70;99.90;;;;;;4991507;28;20054;-80
2023/04/26 14:23:50;;;;;;;3.17;1.00;;;9.50;99.90;;;;;;4991763;28;20128;-85
2023/04/26 14:26:36;;;;;;;3.58;1.25;;;9.50;99.90;;;;;;4991546;28;20041;-87
2023/04/26 14:29:22;;;;;;;4.43;1.50;;;9.60;99.90;;;;;;5010797;28;20053;-80
2023/04/26 14:32:08;;;;;;;3.00;1.30;;;9.20;99.90;;;;;;4992588;28;20514;-80
2023/04/26 14:34:54;;;;;;;4.57;1.20;;;9.00;99.90;;;;;;4991870;28;20129;-86